Buoy 41609

sailwx.info

Track history (hours):
 
Tides and Currents Weather Stations Pressure Air Temp Water Temp Dewpoint Dewpoint Depression Visibility Wind Speed Wind Dir Waves Ship Positions

Drifting buoy 41609

Last reported at 2015-May-04 17:00 UTC. Time now 2015-May-04 20:07 UTC.
Position N 42°49' W 045°53'.

Date/timePositionNaut miles runAvg speedWind from/ knotsBaromVisibWave heightAir tempDewpointWater temp
2015-May-04 17:00N 42°49' W 045°53'1 1.3
2015-May-04 16:00N 42°48' W 045°55'2 0.7
2015-May-04 13:00N 42°47' W 045°57'3 0.5
2015-May-04 07:00N 42°46' W 046°00'4 4.4
2015-May-04 06:00N 42°42' W 046°04'0 0.0
2015-May-04 05:00N 42°42' W 046°04'1 0.1
2015-May-04 00:00N 42°42' W 046°04'2 2.2
2015-May-03 23:00N 42°39' W 046°04'0 0.0
2015-May-03 22:00N 42°39' W 046°04'1 1.4
2015-May-03 21:00N 42°38' W 046°05'0 0.1
2015-May-03 19:00N 42°38' W 046°05'2 0.7
2015-May-03 16:00N 42°36' W 046°04'0 0.0
2015-May-03 15:00N 42°36' W 046°04'3 1.0
2015-May-03 12:00N 42°33' W 046°04'3 0.9
2015-May-03 09:00N 42°31' W 046°06'1 0.9
2015-May-03 08:00N 42°30' W 046°06'2 1.2
2015-May-03 06:00N 42°27' W 046°07'8 0.7
2015-May-02 19:00N 42°19' W 046°05'1 0.6
2015-May-02 18:00N 42°19' W 046°05'1 1.0
2015-May-02 17:00N 42°18' W 046°05'1 0.3
2015-May-02 13:00N 42°17' W 046°05'0 0.1
2015-May-02 12:00N 42°17' W 046°05'4 0.5
2015-May-02 04:00N 42°13' W 046°06'4 0.7
2015-May-01 23:00N 42°10' W 046°08'6 0.4
2015-May-01 09:00N 42°05' W 046°12'2 1.0
2015-May-01 07:00N 42°03' W 046°13'2 0.8
2015-May-01 05:00N 42°01' W 046°14'4 4.2
2015-May-01 04:00N 41°57' W 046°15'3 0.3
2015-Apr-30 19:00N 41°54' W 046°16'3 3.4
2015-Apr-30 18:00N 41°52' W 046°20'0 0.0
2015-Apr-30 16:00N 41°52' W 046°20'0 0.0
2015-Apr-30 15:00N 41°52' W 046°20'6 3.1
2015-Apr-30 13:00N 41°46' W 046°23'0 0.0
2015-Apr-30 12:00N 41°46' W 046°23'0 0.0
2015-Apr-30 11:00N 41°46' W 046°23'2 1.0
2015-Apr-30 09:00N 41°44' W 046°24'1 0.8
2015-Apr-30 08:00N 41°43' W 046°24'1 1.0
2015-Apr-30 07:00N 41°43' W 046°24'3 3.2
2015-Apr-30 06:00N 41°39' W 046°25'0 0.0
2015-Apr-30 05:00N 41°39' W 046°25'10 9.9
2015-Apr-30 04:00N 41°30' W 046°29'4 0.6
2015-Apr-29 22:00N 41°27' W 046°31'10 2.4
2015-Apr-29 18:00N 41°20' W 046°40'0 0.0
2015-Apr-29 17:00N 41°20' W 046°40'2 2.2
2015-Apr-29 16:00N 41°19' W 046°43'0 0.0
2015-Apr-29 15:00N 41°19' W 046°43'2 1.5
2015-Apr-29 14:00N 41°19' W 046°45'8 1.4
2015-Apr-29 08:00N 41°16' W 046°55'1 0.6
2015-Apr-29 07:00N 41°16' W 046°56'5 0.7
2015-Apr-29 00:00N 41°19' W 047°01'2 1.2
2015-Apr-28 22:00N 41°20' W 047°04'1 0.3
2015-Apr-28 19:00N 41°20' W 047°05'1 0.7
2015-Apr-28 17:00N 41°21' W 047°07'7 1.0
2015-Apr-28 10:00N 41°24' W 047°14'2 2.2
2015-Apr-28 09:00N 41°25' W 047°17'4 2.0
2015-Apr-28 07:00N 41°27' W 047°22'4 2.2
2015-Apr-28 05:00N 41°28' W 047°27'0 0.0
2015-Apr-28 04:00N 41°28' W 047°27'7 0.9
2015-Apr-27 20:00N 41°26' W 047°36'1 1.4
2015-Apr-27 19:00N 41°26' W 047°38'6 1.1
2015-Apr-27 13:00N 41°27' W 047°46'2 2.4
2015-Apr-27 12:00N 41°26' W 047°50'0 0.0
2015-Apr-27 11:00N 41°26' W 047°50'10 1.4
2015-Apr-27 04:00N 41°27' W 048°03'18 1.0
2015-Apr-26 09:00N 41°31' W 048°26'6 2.8
2015-Apr-26 07:00N 41°30' W 048°33'0 0.0
2015-Apr-26 06:00N 41°30' W 048°33'10 9.8
2015-Apr-26 05:00N 41°21' W 048°41'0 0.0
2015-Apr-26 04:00N 41°21' W 048°41'2 0.3
2015-Apr-25 21:00N 41°20' W 048°42'3 0.7
2015-Apr-25 16:00N 41°17' W 048°45'7 1.7
2015-Apr-25 12:00N 41°11' W 048°49'1 0.3
2015-Apr-25 09:00N 41°10' W 048°49'9 3.0
2015-Apr-25 06:00N 41°01' W 048°48'5 5.2
2015-Apr-25 05:00N 41°06' W 048°50'7 0.9
2015-Apr-24 22:00N 41°00' W 048°49'  
Track history (hours):
 
Tides and Currents Weather Stations Pressure Air Temp Water Temp Dewpoint Dewpoint Depression Visibility Wind Speed Wind Dir Waves Ship Positions

Drifting buoy 41609

Last reported at 2015-May-04 17:00 UTC. Time now 2015-May-04 20:07 UTC.
Position N 42°49' W 045°53'.

Date/timePositionNaut miles runAvg speedWind from/ knotsBaromVisibWave heightAir tempDewpointWater temp
2015-May-04 17:00N 42°49' W 045°53'1 1.3
2015-May-04 16:00N 42°48' W 045°55'2 0.7
2015-May-04 13:00N 42°47' W 045°57'3 0.5
2015-May-04 07:00N 42°46' W 046°00'4 4.4
2015-May-04 06:00N 42°42' W 046°04'0 0.0
2015-May-04 05:00N 42°42' W 046°04'1 0.1
2015-May-04 00:00N 42°42' W 046°04'2 2.2
2015-May-03 23:00N 42°39' W 046°04'0 0.0
2015-May-03 22:00N 42°39' W 046°04'1 1.4
2015-May-03 21:00N 42°38' W 046°05'0 0.1
2015-May-03 19:00N 42°38' W 046°05'2 0.7
2015-May-03 16:00N 42°36' W 046°04'0 0.0
2015-May-03 15:00N 42°36' W 046°04'3 1.0
2015-May-03 12:00N 42°33' W 046°04'3 0.9
2015-May-03 09:00N 42°31' W 046°06'1 0.9
2015-May-03 08:00N 42°30' W 046°06'2 1.2
2015-May-03 06:00N 42°27' W 046°07'8 0.7
2015-May-02 19:00N 42°19' W 046°05'1 0.6
2015-May-02 18:00N 42°19' W 046°05'1 1.0
2015-May-02 17:00N 42°18' W 046°05'1 0.3
2015-May-02 13:00N 42°17' W 046°05'0 0.1
2015-May-02 12:00N 42°17' W 046°05'4 0.5
2015-May-02 04:00N 42°13' W 046°06'4 0.7
2015-May-01 23:00N 42°10' W 046°08'6 0.4
2015-May-01 09:00N 42°05' W 046°12'2 1.0
2015-May-01 07:00N 42°03' W 046°13'2 0.8
2015-May-01 05:00N 42°01' W 046°14'4 4.2
2015-May-01 04:00N 41°57' W 046°15'3 0.3
2015-Apr-30 19:00N 41°54' W 046°16'3 3.4
2015-Apr-30 18:00N 41°52' W 046°20'0 0.0
2015-Apr-30 16:00N 41°52' W 046°20'0 0.0
2015-Apr-30 15:00N 41°52' W 046°20'6 3.1
2015-Apr-30 13:00N 41°46' W 046°23'0 0.0
2015-Apr-30 12:00N 41°46' W 046°23'0 0.0
2015-Apr-30 11:00N 41°46' W 046°23'2 1.0
2015-Apr-30 09:00N 41°44' W 046°24'1 0.8
2015-Apr-30 08:00N 41°43' W 046°24'1 1.0
2015-Apr-30 07:00N 41°43' W 046°24'3 3.2
2015-Apr-30 06:00N 41°39' W 046°25'0 0.0
2015-Apr-30 05:00N 41°39' W 046°25'10 9.9
2015-Apr-30 04:00N 41°30' W 046°29'4 0.6
2015-Apr-29 22:00N 41°27' W 046°31'10 2.4
2015-Apr-29 18:00N 41°20' W 046°40'0 0.0
2015-Apr-29 17:00N 41°20' W 046°40'2 2.2
2015-Apr-29 16:00N 41°19' W 046°43'0 0.0
2015-Apr-29 15:00N 41°19' W 046°43'2 1.5
2015-Apr-29 14:00N 41°19' W 046°45'8 1.4
2015-Apr-29 08:00N 41°16' W 046°55'1 0.6
2015-Apr-29 07:00N 41°16' W 046°56'5 0.7
2015-Apr-29 00:00N 41°19' W 047°01'2 1.2
2015-Apr-28 22:00N 41°20' W 047°04'1 0.3
2015-Apr-28 19:00N 41°20' W 047°05'1 0.7
2015-Apr-28 17:00N 41°21' W 047°07'7 1.0
2015-Apr-28 10:00N 41°24' W 047°14'2 2.2
2015-Apr-28 09:00N 41°25' W 047°17'4 2.0
2015-Apr-28 07:00N 41°27' W 047°22'4 2.2
2015-Apr-28 05:00N 41°28' W 047°27'0 0.0
2015-Apr-28 04:00N 41°28' W 047°27'7 0.9
2015-Apr-27 20:00N 41°26' W 047°36'1 1.4
2015-Apr-27 19:00N 41°26' W 047°38'6 1.1
2015-Apr-27 13:00N 41°27' W 047°46'2 2.4
2015-Apr-27 12:00N 41°26' W 047°50'0 0.0
2015-Apr-27 11:00N 41°26' W 047°50'10 1.4
2015-Apr-27 04:00N 41°27' W 048°03'18 1.0
2015-Apr-26 09:00N 41°31' W 048°26'6 2.8
2015-Apr-26 07:00N 41°30' W 048°33'0 0.0
2015-Apr-26 06:00N 41°30' W 048°33'10 9.8
2015-Apr-26 05:00N 41°21' W 048°41'0 0.0
2015-Apr-26 04:00N 41°21' W 048°41'2 0.3
2015-Apr-25 21:00N 41°20' W 048°42'3 0.7
2015-Apr-25 16:00N 41°17' W 048°45'7 1.7
2015-Apr-25 12:00N 41°11' W 048°49'1 0.3
2015-Apr-25 09:00N 41°10' W 048°49'9 3.0
2015-Apr-25 06:00N 41°01' W 048°48'5 5.2
2015-Apr-25 05:00N 41°06' W 048°50'7 0.9
2015-Apr-24 22:00N 41°00' W 048°49'  

Dump ship's entire track history